Time;durP1;ratioP1;P1;durP2;ratioP2;P2;SDS_P1;SDS_P2;PMS_P1;PMS_P2;Temp;Humidity;BMP_temperature;BMP_pressure;BME280_temperature;BME280_humidity;BME280_pressure;Samples;Min_cycle;Max_cycle;Signal;HPM_P1;HPM_P2
2022/09/21 00:00:31;;;;;;;10.63;4.10;;;10.50;99.90;;;;;;5071555;28;20493;-63
2022/09/21 00:02:57;;;;;;;14.65;4.55;;;10.50;99.90;;;;;;5072834;28;20044;-64
2022/09/21 00:05:23;;;;;;;10.30;4.30;;;10.50;99.90;;;;;;5052520;28;20137;-64
2022/09/21 00:07:50;;;;;;;9.07;4.32;;;10.40;99.90;;;;;;5070972;28;20097;-63
2022/09/21 00:10:18;;;;;;;10.77;4.55;;;10.40;99.90;;;;;;5070491;28;20063;-63
2022/09/21 00:12:47;;;;;;;11.27;4.10;;;10.30;99.90;;;;;;5055052;28;20049;-66
2022/09/21 00:15:13;;;;;;;12.52;4.28;;;10.30;99.90;;;;;;5070486;28;20110;-65
2022/09/21 00:17:39;;;;;;;8.13;4.07;;;10.20;99.90;;;;;;5070265;28;20033;-63
2022/09/21 00:20:06;;;;;;;10.13;4.20;;;10.20;99.90;;;;;;5052842;28;20110;-63
2022/09/21 00:22:33;;;;;;;11.05;4.20;;;10.20;99.90;;;;;;5069986;28;20496;-65
2022/09/21 00:25:01;;;;;;;10.65;4.05;;;10.20;99.90;;;;;;5070794;28;20048;-63
2022/09/21 00:27:28;;;;;;;11.88;4.03;;;10.20;99.90;;;;;;5070069;28;20052;-63
2022/09/21 00:30:02;;;;;;;9.07;3.60;;;10.10;99.90;;;;;;5069970;28;20465;-63
2022/09/21 00:32:30;;;;;;;11.67;4.47;;;10.10;99.90;;;;;;5058386;28;20703;-63
2022/09/21 00:34:59;;;;;;;10.82;4.22;;;10.10;99.90;;;;;;5070951;28;20066;-64
2022/09/21 00:37:26;;;;;;;11.80;4.50;;;10.00;99.90;;;;;;5073815;28;20044;-64
2022/09/21 00:39:52;;;;;;;8.55;4.07;;;10.00;99.90;;;;;;5090948;28;20471;-65
2022/09/21 00:42:19;;;;;;;8.38;4.38;;;10.00;99.90;;;;;;5058501;28;20040;-63
2022/09/21 00:44:45;;;;;;;11.27;4.57;;;10.00;99.90;;;;;;5090593;28;20040;-64
2022/09/21 00:47:20;;;;;;;9.13;4.00;;;10.00;99.90;;;;;;5090704;28;20052;-64
2022/09/21 00:49:53;;;;;;;12.73;4.93;;;10.00;99.90;;;;;;5090924;28;20040;-64
2022/09/21 00:52:21;;;;;;;11.18;4.15;;;10.00;99.90;;;;;;5081793;28;20151;-65
2022/09/21 00:55:07;;;;;;;11.25;3.90;;;10.00;99.90;;;;;;5059891;28;20036;-62
2022/09/21 00:57:35;;;;;;;10.30;4.57;;;10.00;99.90;;;;;;5090159;28;20048;-63
2022/09/21 01:00:11;;;;;;;9.35;4.22;;;10.00;99.90;;;;;;5078160;28;20517;-63
2022/09/21 01:02:37;;;;;;;8.82;4.45;;;10.00;99.90;;;;;;5071462;28;20093;-62
2022/09/21 01:05:06;;;;;;;11.82;4.82;;;10.00;99.90;;;;;;5083702;28;20060;-62
2022/09/21 01:07:35;;;;;;;7.80;4.30;;;10.00;99.90;;;;;;5082824;28;20113;-63
2022/09/21 01:10:09;;;;;;;10.48;4.63;;;10.00;99.90;;;;;;5075534;28;20050;-63
2022/09/21 01:12:43;;;;;;;12.05;4.88;;;10.00;99.90;;;;;;5077891;28;20044;-63
2022/09/21 01:15:34;;;;;;;11.70;4.75;;;10.00;99.90;;;;;;5070828;28;20052;-64
2022/09/21 01:18:21;;;;;;;8.10;4.45;;;9.90;99.90;;;;;;5069745;28;20045;-63
2022/09/21 01:21:05;;;;;;;10.50;4.18;;;9.90;99.90;;;;;;5071298;28;20094;-63
2022/09/21 01:23:41;;;;;;;8.07;4.27;;;9.90;99.90;;;;;;5052449;28;20044;-62
2022/09/21 01:26:32;;;;;;;10.93;4.47;;;9.80;99.90;;;;;;5069886;28;20291;-63
2022/09/21 01:29:33;;;;;;;10.40;4.97;;;9.80;99.90;;;;;;5070895;28;20111;-62
2022/09/21 01:32:24;;;;;;;9.02;4.93;;;9.80;99.90;;;;;;5084354;28;20039;-63
2022/09/21 01:35:08;;;;;;;9.95;4.85;;;9.70;99.90;;;;;;5066966;28;20450;-63
2022/09/21 01:37:44;;;;;;;10.18;4.75;;;9.70;99.90;;;;;;5041101;28;20052;-63
2022/09/21 01:40:18;;;;;;;14.07;5.20;;;9.70;99.90;;;;;;5069564;28;20096;-65
2022/09/21 01:42:46;;;;;;;11.85;5.32;;;9.60;99.90;;;;;;5045077;28;20124;-63
2022/09/21 01:45:17;;;;;;;10.57;5.22;;;9.60;99.90;;;;;;5069078;28;20040;-61
2022/09/21 01:47:47;;;;;;;9.00;4.93;;;9.60;99.90;;;;;;5051593;28;20394;-63
2022/09/21 01:50:15;;;;;;;10.52;5.00;;;9.60;99.90;;;;;;5051745;28;20470;-62
2022/09/21 01:53:07;;;;;;;9.32;5.18;;;9.60;99.90;;;;;;5085023;28;20059;-62
2022/09/21 01:55:43;;;;;;;11.80;6.15;;;9.50;99.90;;;;;;5067342;28;20452;-62
2022/09/21 01:58:18;;;;;;;8.43;5.00;;;9.50;99.90;;;;;;5051812;28;20091;-63
2022/09/21 02:00:45;;;;;;;;;;;9.50;99.90;;;;;;5034144;28;20569;-63
2022/09/21 02:03:34;;;;;;;10.30;4.90;;;9.40;99.90;;;;;;5077500;28;20015;-66
2022/09/21 02:06:01;;;;;;;8.30;4.78;;;9.40;99.90;;;;;;5061996;28;20040;-64
2022/09/21 02:08:30;;;;;;;9.65;5.40;;;9.30;99.90;;;;;;5069106;28;20051;-62
2022/09/21 02:10:58;;;;;;;9.07;5.60;;;9.30;99.90;;;;;;5069395;28;20052;-63
2022/09/21 02:13:26;;;;;;;8.50;5.50;;;9.30;99.90;;;;;;5059275;28;20083;-62
2022/09/21 02:16:24;;;;;;;9.48;5.82;;;9.30;99.90;;;;;;5079980;28;20123;-63
2022/09/21 02:19:10;;;;;;;7.55;5.30;;;9.30;99.90;;;;;;5047762;28;20186;-63
2022/09/21 02:21:47;;;;;;;11.82;5.68;;;9.30;99.90;;;;;;5038401;28;20080;-62
2022/09/21 02:24:24;;;;;;;8.15;5.13;;;9.20;99.90;;;;;;5083133;28;20126;-62
2022/09/21 02:27:28;;;;;;;10.25;5.10;;;9.20;99.90;;;;;;5072918;28;20044;-63
2022/09/21 02:30:13;;;;;;;11.45;5.28;;;9.20;99.90;;;;;;5061806;28;20056;-63
2022/09/21 02:32:52;;;;;;;9.15;5.30;;;9.20;99.90;;;;;;5054711;28;20052;-62
2022/09/21 02:35:31;;;;;;;9.73;5.15;;;9.20;99.90;;;;;;5073768;28;20045;-62
2022/09/21 02:38:07;;;;;;;9.45;5.57;;;9.20;99.90;;;;;;5072664;28;20051;-63
2022/09/21 02:41:03;;;;;;;9.55;5.50;;;9.20;99.90;;;;;;5058794;28;20036;-63
2022/09/21 02:43:46;;;;;;;10.40;5.40;;;9.20;99.90;;;;;;5061372;28;20113;-67
2022/09/21 02:46:20;;;;;;;10.48;5.13;;;9.10;99.90;;;;;;5077406;28;20426;-63
2022/09/21 02:48:59;;;;;;;14.13;5.47;;;9.10;99.90;;;;;;5071453;28;20074;-63
2022/09/21 02:51:30;;;;;;;11.85;5.88;;;9.20;99.90;;;;;;5072750;28;20045;-63
2022/09/21 02:53:58;;;;;;;8.63;5.38;;;9.10;99.90;;;;;;5072614;28;20048;-65
2022/09/21 02:56:25;;;;;;;9.10;5.53;;;9.10;99.90;;;;;;5073416;28;20125;-63
2022/09/21 02:58:55;;;;;;;10.88;5.60;;;9.10;99.90;;;;;;5071875;28;20063;-63
2022/09/21 03:01:23;;;;;;;9.52;5.25;;;9.10;99.90;;;;;;5054530;28;20102;-63
2022/09/21 03:03:49;;;;;;;10.02;5.35;;;9.00;99.90;;;;;;5054115;28;20045;-63
2022/09/21 03:06:15;;;;;;;8.40;5.22;;;9.00;99.90;;;;;;5072889;28;20056;-63
2022/09/21 03:08:40;;;;;;;10.40;5.75;;;9.00;99.90;;;;;;5071256;28;20051;-63
2022/09/21 03:11:07;;;;;;;10.32;5.47;;;9.00;99.90;;;;;;5071685;28;20090;-62
2022/09/21 03:13:33;;;;;;;13.00;5.65;;;9.00;99.90;;;;;;5053965;28;20055;-70
2022/09/21 03:16:04;;;;;;;9.98;5.47;;;8.90;99.90;;;;;;5074947;28;20051;-66
2022/09/21 03:18:30;;;;;;;9.55;5.50;;;9.00;99.90;;;;;;5096759;28;20109;-62
2022/09/21 03:20:56;;;;;;;8.13;5.13;;;8.90;99.90;;;;;;5069734;28;20052;-62
2022/09/21 03:23:22;;;;;;;9.93;5.18;;;9.00;99.90;;;;;;5083070;28;20044;-64
2022/09/21 03:25:48;;;;;;;8.50;5.25;;;8.90;99.90;;;;;;5091032;28;20055;-63
2022/09/21 03:28:14;;;;;;;8.18;4.82;;;8.90;99.90;;;;;;5060312;28;20049;-63
2022/09/21 03:30:41;;;;;;;6.68;4.70;;;8.90;99.90;;;;;;5073604;28;20039;-62
2022/09/21 03:33:07;;;;;;;8.95;4.90;;;8.90;99.90;;;;;;5089650;28;20048;-63
2022/09/21 03:35:33;;;;;;;14.93;5.53;;;8.90;99.90;;;;;;5064260;28;20059;-62
2022/09/21 03:37:59;;;;;;;11.48;4.95;;;8.80;99.90;;;;;;5091146;28;20040;-64
2022/09/21 03:40:26;;;;;;;9.45;5.47;;;8.90;99.90;;;;;;5077562;28;20043;-62
2022/09/21 03:42:53;;;;;;;9.48;4.90;;;8.80;99.90;;;;;;5086613;28;20573;-62
2022/09/21 03:45:20;;;;;;;8.80;5.18;;;8.80;99.90;;;;;;5071818;28;20135;-63
2022/09/21 03:47:47;;;;;;;8.70;5.13;;;8.90;99.90;;;;;;5064431;28;20057;-63
2022/09/21 03:50:13;;;;;;;10.13;4.53;;;8.80;99.90;;;;;;5091002;28;20048;-62
2022/09/21 03:52:40;;;;;;;12.50;5.55;;;8.80;99.90;;;;;;5088492;28;20386;-62
2022/09/21 03:55:08;;;;;;;7.97;4.60;;;8.80;99.90;;;;;;5091365;28;20134;-62
2022/09/21 03:57:35;;;;;;;10.55;5.20;;;8.80;99.90;;;;;;5072732;28;20044;-62
2022/09/21 04:00:03;;;;;;;12.70;4.75;;;8.90;99.90;;;;;;5041231;28;20389;-62
2022/09/21 04:02:30;;;;;;;9.68;4.70;;;8.90;99.90;;;;;;5073331;28;20105;-63
2022/09/21 04:04:56;;;;;;;10.48;5.18;;;8.90;99.90;;;;;;5089576;28;20048;-62
2022/09/21 04:07:21;;;;;;;14.75;4.72;;;8.90;99.90;;;;;;5091430;28;20407;-64
2022/09/21 04:09:47;;;;;;;10.70;4.93;;;8.90;99.90;;;;;;5054474;28;20487;-62
2022/09/21 04:12:13;;;;;;;11.00;4.53;;;8.80;99.90;;;;;;5053066;28;20044;-62
2022/09/21 04:14:38;;;;;;;10.80;4.88;;;8.90;99.90;;;;;;5052243;28;20159;-62
2022/09/21 04:17:04;;;;;;;10.27;4.22;;;8.80;99.90;;;;;;5032258;28;20461;-62
2022/09/21 04:19:30;;;;;;;7.95;4.18;;;8.90;99.90;;;;;;5074111;28;20048;-62
2022/09/21 04:21:56;;;;;;;9.90;4.18;;;8.80;99.90;;;;;;5070112;28;20068;-63
2022/09/21 04:24:22;;;;;;;13.38;4.90;;;8.90;99.90;;;;;;5070469;28;20189;-62
2022/09/21 04:26:48;;;;;;;11.32;4.50;;;8.90;99.90;;;;;;5044141;28;20040;-62
2022/09/21 04:29:14;;;;;;;10.68;4.43;;;8.80;99.90;;;;;;5053836;28;20051;-62
2022/09/21 04:31:41;;;;;;;11.35;4.50;;;8.90;99.90;;;;;;5052795;28;20048;-63
2022/09/21 04:34:10;;;;;;;12.57;4.70;;;8.90;99.90;;;;;;5059100;28;20049;-63
2022/09/21 04:36:36;;;;;;;7.05;3.75;;;8.90;99.90;;;;;;5047963;28;20056;-63
2022/09/21 04:39:03;;;;;;;10.63;4.57;;;8.90;99.90;;;;;;5069939;28;20078;-62
2022/09/21 04:41:29;;;;;;;9.15;4.03;;;8.90;99.90;;;;;;5072865;28;20087;-68
2022/09/21 04:43:55;;;;;;;9.32;4.20;;;8.90;99.90;;;;;;5067823;28;20076;-62
2022/09/21 04:46:21;;;;;;;8.52;4.70;;;8.80;99.90;;;;;;5035357;28;20061;-65
2022/09/21 04:48:46;;;;;;;8.93;4.05;;;8.90;99.90;;;;;;5068091;28;20459;-65
2022/09/21 04:51:13;;;;;;;12.75;5.03;;;8.70;99.90;;;;;;5070434;28;20185;-64
2022/09/21 04:53:41;;;;;;;10.30;4.32;;;8.90;99.90;;;;;;5070053;28;20037;-63
2022/09/21 04:56:08;;;;;;;8.05;3.95;;;8.80;99.90;;;;;;5069544;28;20177;-64
2022/09/21 04:58:34;;;;;;;11.40;4.60;;;8.80;99.90;;;;;;5069802;28;20036;-63
2022/09/21 05:01:00;;;;;;;12.35;4.38;;;8.80;99.90;;;;;;5084844;28;20040;-64
2022/09/21 05:03:27;;;;;;;11.18;4.63;;;8.80;99.90;;;;;;5068503;28;20049;-64
2022/09/21 05:05:55;;;;;;;7.20;3.88;;;8.70;99.90;;;;;;5069131;28;20049;-66
2022/09/21 05:11:11;;;;;;;8.68;4.07;;;8.70;99.90;;;;;;5071725;28;20066;-64
2022/09/21 05:13:38;;;;;;;15.00;4.40;;;8.70;99.90;;;;;;5070186;28;20102;-64
2022/09/21 05:16:04;;;;;;;9.23;3.80;;;8.60;99.90;;;;;;5068780;28;20120;-65
2022/09/21 05:18:29;;;;;;;10.18;4.07;;;8.70;99.90;;;;;;5035316;28;20128;-67
2022/09/21 05:20:56;;;;;;;9.13;4.40;;;8.70;99.90;;;;;;5069532;28;20040;-65
2022/09/21 05:23:23;;;;;;;9.40;3.90;;;8.80;99.90;;;;;;5044761;28;20041;-65
2022/09/21 05:25:49;;;;;;;6.57;3.58;;;8.70;99.90;;;;;;5069512;28;20048;-69
2022/09/21 05:28:17;;;;;;;9.85;4.05;;;8.70;99.90;;;;;;5046197;28;20093;-64
2022/09/21 05:30:54;;;;;;;8.90;4.18;;;8.70;99.90;;;;;;5069272;28;20049;-64
2022/09/21 05:33:20;;;;;;;10.80;4.20;;;8.60;99.90;;;;;;5049605;28;20048;-64
2022/09/21 05:36:09;;;;;;;10.32;4.35;;;8.60;99.90;;;;;;5069492;28;20098;-65
2022/09/21 05:38:35;;;;;;;8.57;4.15;;;8.60;99.90;;;;;;5069312;28;20036;-67
2022/09/21 05:41:01;;;;;;;9.20;4.35;;;8.60;99.90;;;;;;5051576;28;20490;-66
2022/09/21 05:43:27;;;;;;;9.52;3.95;;;8.70;99.90;;;;;;5036239;28;20160;-67
2022/09/21 05:46:09;;;;;;;9.75;3.67;;;8.60;99.90;;;;;;5051176;28;20052;-65
2022/09/21 05:48:40;;;;;;;9.32;4.03;;;8.60;99.90;;;;;;5052852;28;20083;-64
2022/09/21 05:51:51;;;;;;;8.57;3.90;;;8.60;99.90;;;;;;5062522;28;20044;-65
2022/09/21 05:54:26;;;;;;;14.57;4.65;;;8.60;99.90;;;;;;5032748;28;20183;-65
2022/09/21 05:57:14;;;;;;;12.82;3.70;;;8.60;99.90;;;;;;5055558;28;20048;-64
2022/09/21 06:00:13;;;;;;;7.30;3.72;;;8.70;99.90;;;;;;5068228;28;20040;-65
2022/09/21 06:02:48;;;;;;;8.95;4.30;;;8.70;99.90;;;;;;5086396;28;20493;-69
2022/09/21 06:05:15;;;;;;;9.73;4.93;;;8.80;99.90;;;;;;5073970;28;20118;-63
2022/09/21 06:07:41;;;;;;;9.77;4.07;;;8.80;99.90;;;;;;5088756;28;20116;-64
2022/09/21 06:10:14;;;;;;;8.32;4.03;;;8.80;99.90;;;;;;5072311;28;20505;-64
2022/09/21 06:12:41;;;;;;;8.60;4.28;;;8.90;99.90;;;;;;5067738;28;20049;-63
2022/09/21 06:15:10;;;;;;;10.00;4.50;;;8.90;99.90;;;;;;5076069;28;20094;-62
2022/09/21 06:17:35;;;;;;;10.15;4.65;;;9.00;99.90;;;;;;5041006;28;20053;-63
2022/09/21 06:20:02;;;;;;;6.70;4.57;;;9.00;99.90;;;;;;5053755;28;20393;-63
2022/09/21 06:22:28;;;;;;;8.73;3.92;;;9.00;99.90;;;;;;5055051;28;20481;-63
2022/09/21 06:24:53;;;;;;;7.72;4.10;;;9.10;99.90;;;;;;5073509;28;20074;-64
2022/09/21 06:27:19;;;;;;;7.10;4.10;;;9.20;99.90;;;;;;5071225;28;20102;-63
2022/09/21 06:29:45;;;;;;;10.45;4.35;;;9.40;99.90;;;;;;5070860;28;20113;-65
2022/09/21 06:32:10;;;;;;;9.10;4.28;;;9.40;99.90;;;;;;5037152;28;20569;-63
2022/09/21 06:45:12;;;;;;;8.30;4.60;;;10.10;99.90;;;;;;5137889;27;20175;-65
2022/09/21 06:47:38;;;;;;;7.68;5.03;;;9.60;99.90;;;;;;5127843;27;20100;-64
2022/09/21 06:50:04;;;;;;;11.50;5.10;;;9.70;99.90;;;;;;5105196;28;20055;-71
2022/09/21 06:52:30;;;;;;;14.30;5.55;;;9.80;99.90;;;;;;5126359;28;20044;-64
2022/09/21 06:54:56;;;;;;;13.27;5.03;;;9.90;99.90;;;;;;5127929;28;20384;-63
2022/09/21 06:57:22;;;;;;;7.82;4.50;;;9.90;99.90;;;;;;5127459;27;20248;-62
2022/09/21 06:59:48;;;;;;;10.95;4.88;;;9.90;99.90;;;;;;5124201;28;20438;-65
2022/09/21 07:02:14;;;;;;;9.45;4.38;;;10.10;99.90;;;;;;5123643;28;20039;-64
2022/09/21 07:04:40;;;;;;;10.95;4.63;;;10.10;99.90;;;;;;5123521;27;20646;-68
2022/09/21 07:07:06;;;;;;;12.50;4.35;;;10.10;99.90;;;;;;5125294;27;20043;-70
2022/09/21 07:09:31;;;;;;;10.73;4.20;;;10.30;99.90;;;;;;5130460;27;20053;-65
2022/09/21 07:11:58;;;;;;;9.90;3.85;;;10.40;99.90;;;;;;5108817;28;20043;-64
2022/09/21 07:14:23;;;;;;;10.70;4.00;;;10.50;99.90;;;;;;5125280;27;20481;-64
2022/09/21 07:16:49;;;;;;;18.25;4.40;;;10.50;99.90;;;;;;5126058;27;20050;-64
2022/09/21 07:19:15;;;;;;;13.13;4.20;;;10.80;99.90;;;;;;5103822;28;20138;-68
2022/09/21 07:21:41;;;;;;;11.77;4.20;;;10.70;99.90;;;;;;5123914;28;20039;-66
2022/09/21 07:24:07;;;;;;;18.38;4.57;;;10.90;99.90;;;;;;5124587;28;20036;-68
2022/09/21 07:26:33;;;;;;;13.88;4.07;;;11.00;99.90;;;;;;5125891;27;20052;-63
2022/09/21 07:28:59;;;;;;;8.70;3.88;;;11.10;99.90;;;;;;5126183;27;20681;-64
2022/09/21 07:31:26;;;;;;;16.13;3.55;;;11.30;99.90;;;;;;5118483;28;20075;-63
2022/09/21 07:33:57;;;;;;;8.07;2.97;;;11.50;99.90;;;;;;5120981;27;20067;-66
2022/09/21 07:36:23;;;;;;;18.15;4.00;;;11.70;99.90;;;;;;5123824;28;20058;-62
2022/09/21 07:38:49;;;;;;;10.10;3.13;;;12.20;99.90;;;;;;5124363;27;20043;-62
2022/09/21 07:41:15;;;;;;;15.90;3.65;;;13.60;99.90;;;;;;5116031;27;20122;-64
2022/09/21 07:43:41;;;;;;;7.55;2.85;;;15.00;99.90;;;;;;5125097;27;20138;-63
2022/09/21 07:46:12;;;;;;;8.48;2.83;;;16.40;99.90;;;;;;5125658;27;20051;-63
2022/09/21 07:48:38;;;;;;;7.80;2.35;;;17.70;99.90;;;;;;5122850;27;20055;-66
2022/09/21 07:51:06;;;;;;;12.50;2.80;;;18.90;99.90;;;;;;5129256;27;20150;-64
2022/09/21 07:53:36;;;;;;;10.00;2.83;;;;;;;;;;5114642;28;20078;-65
2022/09/21 07:56:08;;;;;;;8.30;2.55;;;20.00;99.90;;;;;;5112791;28;20051;-63
2022/09/21 08:01:20;;;;;;;5.18;1.83;;;;;;;;;;5117133;27;20059;-72
2022/09/21 08:03:48;;;;;;;12.90;2.25;;;;;;;;;;5092977;28;20127;-69
2022/09/21 08:06:14;;;;;;;7.05;2.08;;;21.90;99.90;;;;;;5102514;27;20085;-68
2022/09/21 08:08:40;;;;;;;6.75;1.90;;;24.50;96.30;;;;;;5107166;28;20072;-67
2022/09/21 08:11:07;;;;;;;7.60;2.08;;;24.50;95.00;;;;;;5104982;27;20051;-67
2022/09/21 08:13:33;;;;;;;7.45;1.88;;;24.70;94.70;;;;;;5101514;28;20044;-70
2022/09/21 08:16:01;;;;;;;7.65;2.17;;;25.20;93.70;;;;;;5098921;28;20039;-65
2022/09/21 08:18:28;;;;;;;7.07;2.10;;;25.50;92.00;;;;;;5090817;28;20477;-68
2022/09/21 08:20:58;;;;;;;5.75;1.80;;;25.80;92.80;;;;;;5109010;27;20043;-72
2022/09/21 08:23:27;;;;;;;6.10;1.75;;;26.30;91.40;;;;;;5106768;27;20552;-66
2022/09/21 08:26:00;;;;;;;5.95;1.85;;;26.40;91.10;;;;;;5105716;28;20043;-63
2022/09/21 08:28:30;;;;;;;5.88;1.65;;;26.70;90.10;;;;;;5103965;28;20055;-70
2022/09/21 08:31:03;;;;;;;9.20;2.13;;;27.00;90.30;;;;;;5105638;27;20051;-65
2022/09/21 08:33:29;;;;;;;5.60;1.33;;;27.20;89.70;;;;;;5122598;27;20040;-67
2022/09/21 08:35:57;;;;;;;6.63;1.90;;;27.00;88.70;;;;;;5110189;28;20040;-67
2022/09/21 08:38:24;;;;;;;8.10;1.95;;;27.10;88.00;;;;;;5109501;28;20559;-66
2022/09/21 08:40:50;;;;;;;8.68;1.90;;;27.20;89.00;;;;;;5121743;27;20044;-68
2022/09/21 08:43:24;;;;;;;5.88;1.75;;;27.40;88.40;;;;;;5117175;27;20100;-73
2022/09/21 08:45:49;;;;;;;8.98;1.83;;;27.50;86.00;;;;;;5124680;27;20047;-66
2022/09/21 08:48:23;;;;;;;6.40;1.60;;;27.60;87.10;;;;;;5111468;28;20050;-70
2022/09/21 08:50:52;;;;;;;4.97;1.50;;;27.80;86.40;;;;;;5107322;27;20341;-66
2022/09/21 08:53:24;;;;;;;31.63;5.00;;;28.00;86.70;;;;;;5115282;27;20127;-73
2022/09/21 08:55:50;;;;;;;7.18;1.60;;;28.00;85.10;;;;;;5106190;27;20568;-67
2022/09/21 08:58:25;;;;;;;9.02;1.80;;;27.90;84.20;;;;;;5107103;27;20119;-66
2022/09/21 09:01:06;;;;;;;5.53;1.58;;;27.90;84.70;;;;;;5108862;28;20050;-65
2022/09/21 09:03:45;;;;;;;4.57;1.30;;;27.90;83.70;;;;;;5107486;27;20182;-66
2022/09/21 09:06:25;;;;;;;5.68;1.80;;;28.00;83.80;;;;;;5108828;28;20051;-65
2022/09/21 09:09:14;;;;;;;6.10;1.83;;;28.00;82.00;;;;;;5108825;28;20077;-65
2022/09/21 09:11:56;;;;;;;6.40;2.20;;;27.30;82.70;;;;;;5105786;28;20035;-66
2022/09/21 09:14:43;;;;;;;5.82;1.42;;;26.40;83.20;;;;;;5111456;27;20042;-66
2022/09/21 09:17:37;;;;;;;4.88;1.20;;;25.20;84.90;;;;;;5108865;28;20043;-65
2022/09/21 09:20:26;;;;;;;4.00;1.40;;;24.20;84.60;;;;;;5100996;28;20077;-67
2022/09/21 09:23:04;;;;;;;8.82;1.70;;;23.50;86.60;;;;;;5107607;28;20035;-65
2022/09/21 09:25:38;;;;;;;6.35;1.33;;;23.10;86.90;;;;;;5103053;28;20051;-66
2022/09/21 09:28:36;;;;;;;7.03;1.65;;;22.70;88.20;;;;;;5090613;28;20130;-66
2022/09/21 09:31:16;;;;;;;6.72;1.67;;;22.30;89.00;;;;;;5102548;28;20124;-67
2022/09/21 09:33:57;;;;;;;7.60;1.80;;;22.00;90.20;;;;;;5111168;27;20450;-70
2022/09/21 09:36:29;;;;;;;7.38;1.80;;;21.80;90.30;;;;;;5109649;27;20484;-70
2022/09/21 09:39:02;;;;;;;9.43;2.00;;;21.60;90.50;;;;;;5107065;28;20044;-66
2022/09/21 09:41:39;;;;;;;5.55;1.33;;;21.40;90.40;;;;;;5106818;28;20577;-64
2022/09/21 09:44:16;;;;;;;5.53;1.30;;;21.40;90.00;;;;;;5110596;27;20056;-65
2022/09/21 09:47:08;;;;;;;6.20;1.73;;;21.20;90.30;;;;;;5108019;28;20288;-65
2022/09/21 09:50:05;;;;;;;6.22;1.65;;;21.00;90.80;;;;;;5106491;28;20039;-66
2022/09/21 09:52:31;;;;;;;4.47;1.33;;;20.70;90.10;;;;;;5107981;28;20066;-65
2022/09/21 09:55:20;;;;;;;53.90;7.53;;;20.30;90.90;;;;;;5106737;27;20439;-65
2022/09/21 09:57:48;;;;;;;10.07;2.05;;;19.90;93.40;;;;;;5107030;28;20058;-67
2022/09/21 10:00:17;;;;;;;3.33;1.10;;;19.70;91.10;;;;;;5108752;28;20389;-64
2022/09/21 10:03:00;;;;;;;7.60;1.63;;;19.60;91.00;;;;;;5106116;28;20097;-66
2022/09/21 10:05:32;;;;;;;19.23;3.22;;;19.50;91.10;;;;;;5110266;28;20088;-71
2022/09/21 10:07:59;;;;;;;18.08;3.05;;;19.30;92.20;;;;;;5107033;28;20039;-68
2022/09/21 10:10:40;;;;;;;6.20;1.50;;;19.20;92.60;;;;;;5107968;27;20051;-66
2022/09/21 10:13:15;;;;;;;5.47;1.55;;;19.00;92.30;;;;;;5107166;28;20378;-62
2022/09/21 10:15:53;;;;;;;5.90;1.63;;;19.00;92.10;;;;;;5102853;27;20365;-63
2022/09/21 10:18:21;;;;;;;6.30;1.48;;;19.10;92.30;;;;;;5106231;27;20043;-63
2022/09/21 10:20:54;;;;;;;8.40;1.65;;;19.00;92.50;;;;;;5106317;28;20100;-64
2022/09/21 10:23:20;;;;;;;7.50;1.58;;;18.90;92.10;;;;;;5107038;28;20047;-63
2022/09/21 10:25:58;;;;;;;4.55;1.27;;;18.80;92.10;;;;;;5104299;28;20470;-64
2022/09/21 10:28:25;;;;;;;5.20;1.38;;;18.80;92.30;;;;;;5106433;28;20082;-65
2022/09/21 10:31:11;;;;;;;4.30;1.70;;;18.80;92.80;;;;;;5106911;28;20425;-65
2022/09/21 10:33:49;;;;;;;7.35;1.30;;;18.70;93.00;;;;;;5098875;28;20142;-64
2022/09/21 10:36:31;;;;;;;5.72;1.50;;;18.70;93.30;;;;;;5107862;28;20079;-64
2022/09/21 10:39:12;;;;;;;5.18;1.25;;;18.70;93.30;;;;;;5107462;28;20048;-65
2022/09/21 10:41:38;;;;;;;7.85;1.70;;;18.70;93.20;;;;;;5104514;28;20050;-63
2022/09/21 10:44:14;;;;;;;4.85;1.50;;;18.70;93.10;;;;;;5110145;28;20060;-65
2022/09/21 10:46:40;;;;;;;6.20;1.48;;;18.80;93.60;;;;;;5102755;28;20066;-63
2022/09/21 11:35:54;;;;;;;3.80;1.13;;;19.10;92.20;;;;;;5075780;28;20110;-76
2022/09/21 11:38:44;;;;;;;6.30;1.55;;;19.00;90.80;;;;;;5053706;28;20133;-71
2022/09/21 11:41:41;;;;;;;3.40;1.20;;;19.20;91.00;;;;;;5071787;28;20052;-79
2022/09/21 11:44:23;;;;;;;9.75;1.83;;;19.40;90.30;;;;;;5087755;28;20036;-74
2022/09/21 11:46:58;;;;;;;6.10;1.45;;;19.50;90.70;;;;;;5073165;28;20124;-73
2022/09/21 11:49:42;;;;;;;7.60;1.40;;;19.60;90.40;;;;;;5062103;28;20103;-73
2022/09/21 11:52:44;;;;;;;5.57;1.30;;;19.80;90.10;;;;;;5081338;28;20413;-76
2022/09/21 11:55:38;;;;;;;3.58;1.40;;;19.80;89.70;;;;;;5085982;28;20056;-72
2022/09/21 11:58:14;;;;;;;9.32;1.58;;;19.70;89.20;;;;;;5058152;28;20416;-72
2022/09/21 12:01:00;;;;;;;4.07;1.35;;;19.70;88.00;;;;;;5062023;28;20179;-72
2022/09/21 12:03:53;;;;;;;4.80;1.20;;;19.70;88.50;;;;;;5063182;28;20041;-74
2022/09/21 12:06:53;;;;;;;4.00;1.15;;;19.80;90.20;;;;;;5085603;28;20051;-73
2022/09/21 12:09:41;;;;;;;4.20;1.25;;;19.90;90.10;;;;;;5076808;28;20040;-74
2022/09/21 12:12:16;;;;;;;4.85;1.33;;;19.90;89.80;;;;;;5085980;28;20121;-72
2022/09/21 12:15:10;;;;;;;4.63;1.50;;;19.90;89.50;;;;;;5085652;28;20074;-75
2022/09/21 12:17:45;;;;;;;4.73;1.43;;;19.90;90.10;;;;;;5080629;28;20057;-72
2022/09/21 12:20:24;;;;;;;4.72;1.45;;;19.90;89.90;;;;;;5077651;28;20123;-74
2022/09/21 12:22:56;;;;;;;6.03;1.30;;;19.80;89.30;;;;;;5085931;28;20040;-74
2022/09/21 12:25:34;;;;;;;2.85;1.10;;;19.80;90.00;;;;;;5085905;28;20505;-72
2022/09/21 12:28:19;;;;;;;2.97;1.13;;;19.90;90.20;;;;;;5083569;28;20055;-71
2022/09/21 12:30:51;;;;;;;6.50;1.35;;;20.00;90.00;;;;;;5078493;28;20509;-68
2022/09/21 12:33:35;;;;;;;5.78;1.30;;;20.00;89.70;;;;;;5084989;28;20055;-68
2022/09/21 12:36:09;;;;;;;4.35;1.17;;;20.00;88.90;;;;;;5063145;28;20119;-72
2022/09/21 12:39:04;;;;;;;4.60;1.02;;;19.90;88.70;;;;;;5070071;28;20045;-72
2022/09/21 12:41:51;;;;;;;3.42;1.20;;;19.70;89.30;;;;;;5055591;28;20049;-70
2022/09/21 12:44:29;;;;;;;4.47;1.00;;;19.60;88.60;;;;;;5036534;28;20076;-67
2022/09/21 12:47:10;;;;;;;6.70;1.45;;;19.50;89.40;;;;;;5040177;28;20110;-67
2022/09/21 12:49:42;;;;;;;5.38;1.38;;;19.40;89.80;;;;;;5024439;28;20044;-68
2022/09/21 12:52:09;;;;;;;6.50;1.50;;;19.20;90.00;;;;;;5053301;28;20443;-70
2022/09/21 12:54:38;;;;;;;4.78;1.17;;;19.20;90.40;;;;;;5072563;28;20064;-69
2022/09/21 12:57:14;;;;;;;5.07;1.33;;;19.20;90.70;;;;;;5072701;28;20048;-68
2022/09/21 13:00:00;;;;;;;3.80;1.50;;;19.30;90.80;;;;;;5068615;28;20041;-69
2022/09/21 13:02:35;;;;;;;4.25;1.30;;;19.30;90.60;;;;;;5052554;28;20491;-69
2022/09/21 13:05:12;;;;;;;2.47;1.10;;;19.40;90.60;;;;;;5071106;28;20402;-72
2022/09/21 13:08:05;;;;;;;3.58;1.10;;;19.40;90.60;;;;;;5072146;28;20072;-70
2022/09/21 13:10:39;;;;;;;6.80;1.67;;;19.30;90.30;;;;;;5065383;28;20106;-73
2022/09/21 13:13:13;;;;;;;6.00;1.13;;;19.20;90.80;;;;;;5070978;28;20048;-71
2022/09/21 13:15:44;;;;;;;3.40;1.15;;;19.20;90.70;;;;;;5072619;28;20048;-71
2022/09/21 13:18:39;;;;;;;5.75;1.40;;;19.20;90.60;;;;;;5054699;28;20505;-69
2022/09/21 13:21:28;;;;;;;4.80;1.20;;;19.30;90.30;;;;;;5046142;28;20494;-72
2022/09/21 13:24:03;;;;;;;5.03;1.60;;;19.20;90.30;;;;;;5072571;28;20118;-69
2022/09/21 13:26:52;;;;;;;4.97;1.52;;;19.20;90.40;;;;;;5071616;28;20486;-69
2022/09/21 13:29:18;;;;;;;4.85;1.70;;;19.20;90.60;;;;;;5071937;28;20550;-69
2022/09/21 13:32:22;;;;;;;3.58;1.10;;;19.10;91.00;;;;;;5064089;28;20056;-71
2022/09/21 13:34:49;;;;;;;6.25;1.55;;;19.10;90.70;;;;;;5067481;28;20064;-70
2022/09/21 13:37:18;;;;;;;5.50;1.42;;;19.00;91.00;;;;;;5071906;28;20045;-70
2022/09/21 13:40:02;;;;;;;5.00;1.48;;;19.00;91.10;;;;;;5071097;28;20095;-69
2022/09/21 13:42:34;;;;;;;8.30;1.67;;;18.90;90.90;;;;;;5046582;28;20060;-69
2022/09/21 13:45:16;;;;;;;5.30;1.50;;;18.90;91.00;;;;;;5054771;28;20086;-70
2022/09/21 13:47:44;;;;;;;5.78;1.35;;;18.80;91.00;;;;;;5050224;28;20063;-70
2022/09/21 13:50:25;;;;;;;3.75;1.10;;;18.80;91.00;;;;;;5045070;28;20061;-71
2022/09/21 13:52:56;;;;;;;4.80;1.27;;;18.80;91.00;;;;;;5050535;28;20348;-71
2022/09/21 13:55:41;;;;;;;3.78;1.23;;;18.90;90.90;;;;;;5051331;28;20067;-70
2022/09/21 13:58:20;;;;;;;4.07;1.70;;;18.90;91.10;;;;;;5051901;28;20131;-74
2022/09/21 14:00:55;;;;;;;5.05;1.40;;;19.00;91.00;;;;;;5047452;28;20040;-68
2022/09/21 14:03:31;;;;;;;3.53;1.10;;;18.90;90.60;;;;;;5046821;28;20052;-70
2022/09/21 14:06:21;;;;;;;5.63;1.30;;;18.80;91.00;;;;;;5051513;28;20069;-68
2022/09/21 14:09:03;;;;;;;6.90;1.40;;;18.80;90.70;;;;;;5051422;28;20095;-68
2022/09/21 14:11:43;;;;;;;5.20;1.10;;;18.80;92.20;;;;;;5049292;28;20092;-69
2022/09/21 14:14:42;;;;;;;3.97;1.33;;;18.70;92.80;;;;;;5048532;28;20480;-68
2022/09/21 14:17:37;;;;;;;3.72;1.33;;;18.60;94.20;;;;;;5026719;28;20503;-69
2022/09/21 14:20:06;;;;;;;4.15;1.05;;;18.50;94.00;;;;;;5043961;28;20175;-69
2022/09/21 14:22:37;;;;;;;5.68;1.30;;;18.30;94.40;;;;;;5049534;28;20049;-68